createdAt,value
2019-02-05T00:01:30.838Z,9.17
2019-02-05T00:04:02.055Z,7.97
2019-02-05T00:06:31.529Z,7.30
2019-02-05T00:09:00.998Z,7.87
2019-02-05T00:11:32.323Z,7.20
2019-02-05T00:14:01.798Z,7.90
2019-02-05T00:16:31.322Z,10.53
2019-02-05T00:19:01.084Z,9.00
2019-02-05T00:21:30.606Z,10.82
2019-02-05T00:24:00.096Z,10.25
2019-02-05T00:26:29.588Z,8.70
2019-02-05T00:28:59.068Z,10.10
2019-02-05T00:31:28.556Z,11.50
2019-02-05T00:33:58.033Z,10.63
2019-02-05T00:36:27.515Z,15.32
2019-02-05T00:38:56.993Z,10.68
2019-02-05T00:41:26.477Z,12.40
2019-02-05T00:43:55.957Z,10.32
2019-02-05T00:46:25.439Z,14.00
2019-02-05T00:48:55.882Z,9.00
2019-02-05T00:51:25.378Z,11.10
2019-02-05T00:53:54.851Z,11.08
2019-02-05T00:56:24.324Z,12.35
2019-02-05T00:58:53.915Z,11.83
2019-02-05T01:01:23.358Z,11.73
2019-02-05T01:03:52.838Z,10.50
2019-02-05T01:06:22.387Z,12.80
2019-02-05T01:08:51.863Z,12.50
2019-02-05T01:11:21.338Z,13.35
2019-02-05T01:13:50.839Z,11.00
2019-02-05T01:16:20.597Z,13.90
2019-02-05T01:18:50.089Z,11.73
2019-02-05T01:21:19.584Z,14.10
2019-02-05T01:23:49.083Z,17.35
2019-02-05T01:26:28.646Z,12.20
2019-02-05T01:28:49.756Z,11.18
2019-02-05T01:31:19.522Z,14.05
2019-02-05T01:33:48.999Z,13.00
2019-02-05T01:36:18.486Z,12.82
2019-02-05T01:38:47.972Z,14.75
2019-02-05T01:41:17.458Z,13.83
2019-02-05T01:43:46.947Z,16.00
2019-02-05T01:46:16.445Z,15.58
2019-02-05T01:48:46.609Z,15.80
2019-02-05T01:51:16.096Z,17.13
2019-02-05T01:53:45.598Z,15.68
2019-02-05T01:56:15.086Z,17.32
2019-02-05T01:58:44.583Z,19.92
2019-02-05T02:01:14.134Z,17.32
2019-02-05T02:03:43.717Z,19.92
2019-02-05T02:06:13.211Z,15.35
2019-02-05T02:08:42.780Z,20.20
2019-02-05T02:11:12.259Z,17.67
2019-02-05T02:13:41.750Z,17.12
2019-02-05T02:16:11.221Z,15.70
2019-02-05T02:18:40.706Z,17.67
2019-02-05T02:21:10.185Z,21.37
2019-02-05T02:23:39.672Z,17.73
2019-02-05T02:26:09.147Z,16.32
2019-02-05T02:28:38.640Z,19.00
2019-02-05T02:31:08.192Z,15.05
2019-02-05T02:33:37.696Z,17.60
2019-02-05T02:36:07.186Z,18.35
2019-02-05T02:38:36.676Z,19.80
2019-02-05T02:41:06.249Z,18.20
2019-02-05T02:43:36.139Z,17.92
2019-02-05T02:46:05.710Z,19.00
2019-02-05T02:48:36.177Z,21.77
2019-02-05T02:51:05.665Z,22.98
2019-02-05T02:53:35.151Z,21.45
2019-02-05T02:56:04.907Z,20.45
2019-02-05T02:58:34.681Z,21.17
2019-02-05T03:01:04.148Z,20.43
2019-02-05T03:03:33.768Z,22.48
2019-02-05T03:06:03.268Z,18.48
2019-02-05T03:08:32.765Z,19.15
2019-02-05T03:11:02.247Z,21.40
2019-02-05T03:13:31.811Z,22.98
2019-02-05T03:16:01.290Z,22.40
2019-02-05T03:18:30.775Z,22.73
2019-02-05T03:21:00.257Z,21.57
2019-02-05T03:23:29.753Z,19.70
2019-02-05T03:25:59.249Z,21.23
2019-02-05T03:28:28.746Z,24.00
2019-02-05T03:30:58.235Z,23.47
2019-02-05T03:33:27.751Z,25.30
2019-02-05T03:35:57.295Z,23.07
2019-02-05T03:38:26.805Z,22.67
2019-02-05T03:41:04.579Z,22.80
2019-02-05T03:43:35.705Z,27.02
2019-02-05T03:46:12.664Z,25.30
2019-02-05T03:48:43.178Z,22.67
2019-02-05T03:52:21.615Z,25.77
2019-02-05T03:55:26.773Z,22.23
2019-02-05T03:58:09.085Z,25.10
2019-02-05T04:01:10.327Z,26.20
2019-02-05T04:03:55.303Z,26.60
2019-02-05T04:07:03.615Z,26.17
2019-02-05T04:09:43.486Z,25.95
2019-02-05T04:12:22.333Z,29.63
2019-02-05T04:15:09.005Z,26.52
2019-02-05T04:17:53.330Z,25.75
2019-02-05T04:21:18.887Z,30.25
2019-02-05T04:24:03.808Z,25.70
2019-02-05T04:27:10.417Z,30.57
2019-02-05T04:30:05.947Z,28.17
2019-02-05T04:32:54.370Z,34.13
2019-02-05T04:35:38.432Z,34.65
2019-02-05T04:38:43.654Z,35.40
2019-02-05T04:41:55.293Z,35.88
2019-02-05T04:44:46.879Z,35.35
2019-02-05T04:47:52.942Z,33.83
2019-02-05T04:50:30.665Z,39.05
2019-02-05T04:53:28.914Z,34.90
2019-02-05T04:56:19.730Z,37.93
2019-02-05T04:59:36.781Z,37.13
2019-02-05T05:02:36.959Z,32.53
2019-02-05T05:05:33.292Z,37.40
2019-02-05T05:08:53.333Z,38.40
2019-02-05T05:11:22.887Z,34.92
2019-02-05T05:13:52.384Z,41.13
2019-02-05T05:16:21.987Z,40.03
2019-02-05T05:18:51.513Z,38.40
2019-02-05T05:21:21.090Z,42.27
2019-02-05T05:23:50.869Z,39.80
2019-02-05T05:26:20.425Z,42.63
2019-02-05T05:28:49.978Z,43.87
2019-02-05T05:31:19.545Z,49.38
2019-02-05T05:33:49.039Z,46.67
2019-02-05T05:36:18.522Z,46.87
2019-02-05T05:38:48.085Z,52.93
2019-02-05T05:41:18.009Z,50.80
2019-02-05T05:43:47.577Z,46.70
2019-02-05T05:46:17.063Z,54.73
2019-02-05T05:48:46.649Z,44.42
2019-02-05T05:51:16.167Z,49.27
2019-02-05T05:53:45.734Z,52.97
2019-02-05T05:56:15.341Z,57.37
2019-02-05T05:58:44.825Z,54.30
2019-02-05T06:01:14.318Z,55.73
2019-02-05T06:03:43.841Z,57.17
2019-02-05T06:06:13.369Z,62.23
2019-02-05T06:08:43.010Z,53.93
2019-02-05T06:11:12.567Z,59.83
2019-02-05T06:13:42.340Z,63.67
2019-02-05T06:16:12.926Z,59.50
2019-02-05T06:18:42.414Z,66.17
2019-02-05T06:21:13.762Z,62.95
2019-02-05T06:23:43.472Z,65.42
2019-02-05T06:26:13.002Z,62.08
2019-02-05T06:28:42.757Z,70.03
2019-02-05T06:31:12.248Z,65.30
2019-02-05T06:33:41.799Z,63.78
2019-02-05T06:36:11.301Z,70.00
2019-02-05T06:38:40.805Z,64.40
2019-02-05T06:41:10.332Z,68.00
2019-02-05T06:43:40.276Z,70.45
2019-02-05T06:46:09.772Z,61.95
2019-02-05T06:48:39.434Z,70.30
2019-02-05T06:51:08.945Z,74.30
2019-02-05T06:53:38.459Z,67.93
2019-02-05T06:56:07.955Z,75.70
2019-02-05T06:58:45.960Z,88.10
2019-02-05T07:01:09.113Z,72.03
2019-02-05T07:03:38.642Z,74.87
2019-02-05T07:06:08.221Z,72.22
2019-02-05T07:08:37.731Z,73.70
2019-02-05T07:11:07.500Z,71.12
2019-02-05T07:13:36.995Z,68.97
2019-02-05T07:16:06.481Z,76.60
2019-02-05T07:18:36.093Z,78.70
2019-02-05T07:21:06.610Z,73.03
2019-02-05T07:23:36.218Z,76.70
2019-02-05T07:26:05.713Z,78.37
2019-02-05T07:28:35.227Z,76.95
2019-02-05T07:31:05.456Z,75.52
2019-02-05T07:33:34.955Z,77.25
2019-02-05T07:36:04.898Z,83.63
2019-02-05T07:38:36.241Z,80.05
2019-02-05T07:41:06.094Z,77.08
2019-02-05T07:43:36.236Z,78.20
2019-02-05T07:46:06.314Z,71.02
2019-02-05T07:48:36.324Z,75.25
2019-02-05T07:51:06.349Z,79.47
2019-02-05T07:53:36.694Z,83.22
2019-02-05T07:56:06.506Z,71.25
2019-02-05T07:58:36.458Z,75.12
2019-02-05T08:01:06.460Z,78.20
2019-02-05T08:03:36.231Z,77.47
2019-02-05T08:06:05.793Z,79.50
2019-02-05T08:08:35.280Z,78.37
2019-02-05T08:11:05.606Z,71.47
2019-02-05T08:13:35.116Z,69.95
2019-02-05T08:16:04.984Z,66.67
2019-02-05T08:18:34.510Z,70.80
2019-02-05T08:21:04.407Z,65.60
2019-02-05T08:23:33.898Z,62.78
2019-02-05T08:26:03.396Z,72.90
2019-02-05T08:28:40.545Z,65.85
2019-02-05T08:31:04.158Z,59.27
2019-02-05T08:33:33.655Z,67.22
2019-02-05T08:36:03.226Z,63.23
2019-02-05T08:38:32.744Z,66.10
2019-02-05T08:41:02.225Z,62.98
2019-02-05T08:43:31.708Z,62.90
2019-02-05T08:46:01.268Z,63.25
2019-02-05T08:48:30.751Z,62.62
2019-02-05T08:51:00.225Z,57.78
2019-02-05T08:53:30.094Z,59.15
2019-02-05T08:55:59.567Z,59.65
2019-02-05T08:58:31.248Z,58.90
2019-02-05T09:01:00.297Z,55.88
2019-02-05T09:03:29.792Z,58.40
2019-02-05T09:05:59.275Z,56.77
2019-02-05T09:08:28.761Z,55.20
2019-02-05T09:10:58.324Z,59.08
2019-02-05T09:13:28.776Z,52.62
2019-02-05T09:15:58.263Z,54.53
2019-02-05T09:18:28.716Z,46.40
2019-02-05T09:20:58.200Z,50.23
2019-02-05T09:23:27.844Z,48.63
2019-02-05T09:25:57.601Z,52.65
2019-02-05T09:28:27.094Z,47.13
2019-02-05T09:30:56.576Z,53.73
2019-02-05T09:33:26.055Z,51.25
2019-02-05T09:35:55.543Z,53.48
2019-02-05T09:38:25.018Z,50.63
2019-02-05T09:40:54.502Z,74.70
2019-02-05T09:43:23.994Z,77.45
2019-02-05T09:45:53.484Z,54.90
2019-02-05T09:48:22.956Z,55.03
2019-02-05T09:50:52.445Z,58.13
2019-02-05T09:53:21.935Z,55.10
2019-02-05T09:55:51.424Z,54.48
2019-02-05T09:58:21.205Z,57.05
2019-02-05T10:00:50.700Z,49.15
2019-02-05T10:03:20.248Z,56.73
2019-02-05T10:05:49.855Z,56.83
2019-02-05T10:08:19.342Z,56.33
2019-02-05T10:10:49.902Z,60.55
2019-02-05T10:13:19.455Z,58.42
2019-02-05T10:15:48.916Z,63.28
2019-02-05T10:18:18.424Z,55.58
2019-02-05T10:20:48.368Z,59.03
2019-02-05T10:23:17.953Z,54.40
2019-02-05T10:25:47.543Z,63.45
2019-02-05T10:28:17.051Z,61.10
2019-02-05T10:30:46.905Z,58.63
2019-02-05T10:33:16.477Z,51.63
2019-02-05T10:35:46.086Z,59.88
2019-02-05T10:38:15.591Z,56.20
2019-02-05T10:40:45.109Z,57.70
2019-02-05T10:43:14.695Z,57.05
2019-02-05T10:45:44.696Z,55.83
2019-02-05T10:48:14.198Z,53.07
2019-02-05T10:50:44.751Z,53.63
2019-02-05T10:53:14.451Z,56.70
2019-02-05T10:55:43.969Z,57.85
2019-02-05T10:58:13.469Z,56.35
2019-02-05T11:00:42.983Z,62.03
2019-02-05T11:03:12.560Z,64.82
2019-02-05T11:05:42.078Z,60.03
2019-02-05T11:08:11.591Z,63.40
2019-02-05T11:10:41.114Z,61.75
2019-02-05T11:13:10.676Z,60.10
2019-02-05T11:15:40.274Z,56.90
2019-02-05T11:18:11.119Z,64.73
2019-02-05T11:20:40.742Z,62.23
2019-02-05T11:23:10.521Z,64.95
2019-02-05T11:25:40.381Z,66.30
2019-02-05T11:28:09.976Z,67.43
2019-02-05T11:30:44.331Z,61.40
2019-02-05T11:33:14.286Z,69.62
2019-02-05T11:35:43.864Z,62.10
2019-02-05T11:38:13.536Z,62.17
2019-02-05T11:40:43.106Z,74.42
2019-02-05T11:43:12.705Z,66.80
2019-02-05T11:45:42.196Z,64.33
2019-02-05T11:48:16.738Z,68.77
2019-02-05T11:50:46.318Z,63.13
2019-02-05T11:53:15.839Z,59.65
2019-02-05T11:55:45.443Z,56.40
2019-02-05T11:58:15.777Z,57.95
2019-02-05T12:00:50.046Z,57.25
2019-02-05T12:03:19.922Z,49.03
2019-02-05T12:05:50.297Z,54.67
2019-02-05T12:08:19.899Z,57.53
2019-02-05T12:10:49.430Z,56.55
2019-02-05T12:13:18.931Z,54.05
2019-02-05T12:15:48.469Z,52.67
2019-02-05T12:18:18.044Z,56.13
2019-02-05T12:20:47.543Z,55.73
2019-02-05T12:23:17.183Z,53.08
2019-02-05T12:25:46.709Z,51.10
2019-02-05T12:28:16.234Z,56.07
2019-02-05T12:30:46.096Z,51.43
2019-02-05T12:33:15.665Z,49.77
2019-02-05T12:35:45.739Z,62.00
2019-02-05T12:38:15.229Z,58.58
2019-02-05T12:40:44.729Z,58.67
2019-02-05T12:43:14.845Z,62.60
2019-02-05T12:45:44.335Z,59.83
2019-02-05T12:48:13.831Z,59.43
2019-02-05T12:50:44.820Z,61.50
2019-02-05T12:53:14.313Z,64.25
2019-02-05T12:55:43.824Z,70.60
2019-02-05T12:58:13.413Z,63.02
2019-02-05T13:00:55.937Z,67.43
2019-02-05T13:03:16.474Z,68.55
2019-02-05T13:05:46.441Z,65.37
2019-02-05T13:08:16.085Z,72.40
2019-02-05T13:10:47.838Z,83.03
2019-02-05T13:13:18.432Z,82.07
2019-02-05T13:15:49.012Z,74.40
2019-02-05T13:18:18.574Z,79.32
2019-02-05T13:20:48.431Z,77.03
2019-02-05T13:23:18.022Z,77.85
2019-02-05T13:25:47.570Z,77.15
2019-02-05T13:28:17.278Z,78.62
2019-02-05T13:30:46.867Z,73.75
2019-02-05T13:33:17.168Z,72.22
2019-02-05T13:35:46.820Z,69.17
2019-02-05T13:38:16.419Z,68.93
2019-02-05T13:40:45.931Z,73.17
2019-02-05T13:43:15.550Z,75.70
2019-02-05T13:45:45.335Z,74.25
2019-02-05T13:48:14.946Z,63.17
2019-02-05T13:50:44.528Z,66.72
2019-02-05T13:53:14.027Z,63.63
2019-02-05T13:55:45.812Z,66.50
2019-02-05T13:58:15.639Z,69.63
2019-02-05T14:00:50.203Z,62.10
2019-02-05T14:03:19.692Z,59.30
2019-02-05T14:05:49.336Z,65.70
2019-02-05T14:08:18.967Z,59.30
2019-02-05T14:10:48.998Z,61.70
2019-02-05T14:13:18.784Z,59.15
2019-02-05T14:15:50.930Z,55.47
2019-02-05T14:18:22.927Z,51.95
2019-02-05T14:20:51.808Z,55.48
2019-02-05T14:23:21.483Z,53.60
2019-02-05T14:25:50.978Z,51.08
2019-02-05T14:28:20.473Z,52.10
2019-02-05T14:30:55.143Z,51.00
2019-02-05T14:33:26.151Z,54.23
2019-02-05T14:35:55.742Z,53.60
2019-02-05T14:38:25.358Z,51.30
2019-02-05T14:40:54.892Z,47.70
2019-02-05T14:43:24.731Z,47.80
2019-02-05T14:45:54.262Z,47.80
2019-02-05T14:48:23.786Z,44.67
2019-02-05T14:50:53.305Z,42.90
2019-02-05T14:53:22.843Z,45.23
2019-02-05T14:55:52.400Z,45.73
2019-02-05T14:58:22.237Z,41.80
2019-02-05T15:00:51.762Z,40.58
2019-02-05T15:03:21.246Z,44.83
2019-02-05T15:05:50.748Z,40.55
2019-02-05T15:08:20.408Z,39.57
2019-02-05T15:10:49.908Z,45.23
2019-02-05T15:13:19.450Z,46.18
2019-02-05T15:15:50.008Z,47.23
2019-02-05T15:18:21.685Z,42.17
2019-02-05T15:20:51.445Z,46.55
2019-02-05T15:23:21.589Z,41.28
2019-02-05T15:25:51.679Z,45.17
2019-02-05T15:28:21.205Z,41.73
2019-02-05T15:30:50.710Z,41.87
2019-02-05T15:33:26.827Z,45.85
2019-02-05T15:35:59.424Z,40.70
2019-02-05T15:38:29.308Z,38.70
2019-02-05T15:41:00.286Z,37.40
2019-02-05T15:43:29.889Z,40.20
2019-02-05T15:45:59.400Z,40.90
2019-02-05T15:48:28.885Z,44.37
2019-02-05T15:50:58.408Z,43.10
2019-02-05T15:53:28.265Z,40.57
2019-02-05T15:55:58.822Z,40.48
2019-02-05T15:58:28.340Z,40.23
2019-02-05T16:00:57.847Z,44.10
2019-02-05T16:03:27.374Z,42.93
2019-02-05T16:05:56.891Z,37.45
2019-02-05T16:08:26.390Z,43.00
2019-02-05T16:10:55.904Z,36.70
2019-02-05T16:13:25.415Z,40.54
2019-02-05T16:15:54.957Z,43.80
2019-02-05T16:18:25.331Z,41.10
2019-02-05T16:20:54.853Z,39.25
2019-02-05T16:23:24.377Z,37.73
2019-02-05T16:25:53.887Z,38.13
2019-02-05T16:28:23.393Z,38.50
2019-02-05T16:30:52.895Z,42.30
2019-02-05T16:33:22.382Z,37.53
2019-02-05T16:35:51.887Z,37.03
2019-02-05T16:38:21.669Z,40.03
2019-02-05T16:40:51.628Z,38.57
2019-02-05T16:43:21.126Z,46.15
2019-02-05T16:45:50.637Z,38.25
2019-02-05T16:48:20.915Z,42.00
2019-02-05T16:50:50.438Z,38.10
2019-02-05T16:53:20.020Z,38.15
2019-02-05T16:55:49.524Z,38.08
2019-02-05T16:58:19.026Z,34.75
2019-02-05T17:00:48.532Z,35.23
2019-02-05T17:03:18.012Z,39.80
2019-02-05T17:05:47.508Z,35.83
2019-02-05T17:08:17.070Z,38.40
2019-02-05T17:10:46.640Z,39.42
2019-02-05T17:13:16.149Z,35.00
2019-02-05T17:15:45.665Z,39.30
2019-02-05T17:18:23.308Z,37.50
2019-02-05T17:20:46.477Z,41.85
2019-02-05T17:23:15.972Z,35.60
2019-02-05T17:25:45.521Z,39.70
2019-02-05T17:28:15.016Z,39.10
2019-02-05T17:30:44.634Z,41.70
2019-02-05T17:33:14.134Z,38.17
2019-02-05T17:35:45.077Z,35.10
2019-02-05T17:38:14.595Z,38.50
2019-02-05T17:40:44.113Z,39.78
2019-02-05T17:43:13.647Z,38.60
2019-02-05T17:45:44.220Z,38.08
2019-02-05T17:48:16.198Z,40.00
2019-02-05T17:50:45.921Z,37.78
2019-02-05T17:53:15.455Z,39.45
2019-02-05T17:55:44.955Z,38.40
2019-02-05T17:58:14.489Z,40.67
2019-02-05T18:00:57.052Z,40.20
2019-02-05T18:03:26.554Z,38.73
2019-02-05T18:05:56.034Z,37.70
2019-02-05T18:08:25.552Z,39.10
2019-02-05T18:10:55.413Z,37.80
2019-02-05T18:13:25.416Z,35.03
2019-02-05T18:15:55.483Z,40.56
2019-02-05T18:18:25.033Z,36.17
2019-02-05T18:20:54.599Z,35.65
2019-02-05T18:23:24.199Z,36.35
2019-02-05T18:25:53.736Z,36.43
2019-02-05T18:28:23.179Z,39.58
2019-02-05T18:30:53.049Z,36.77
2019-02-05T18:33:22.574Z,37.07
2019-02-05T18:35:52.086Z,40.73
2019-02-05T18:38:21.691Z,34.73
2019-02-05T18:40:51.227Z,39.27
2019-02-05T18:43:20.782Z,38.33
2019-02-05T18:45:50.668Z,37.98
2019-02-05T18:48:20.175Z,35.43
2019-02-05T18:50:49.683Z,31.20
2019-02-05T18:53:19.239Z,32.33
2019-02-05T18:55:49.162Z,35.57
2019-02-05T18:58:18.734Z,39.40
2019-02-05T19:00:48.639Z,41.95
2019-02-05T19:03:18.191Z,41.10
2019-02-05T19:05:47.774Z,37.97
2019-02-05T19:08:17.300Z,39.07
2019-02-05T19:10:46.857Z,40.30
2019-02-05T19:13:16.438Z,42.00
2019-02-05T19:15:46.558Z,43.42
2019-02-05T19:18:17.147Z,35.73
2019-02-05T19:20:46.738Z,37.80
2019-02-05T19:23:16.231Z,37.33
2019-02-05T19:26:10.937Z,34.27
2019-02-05T19:28:41.609Z,38.38
2019-02-05T19:31:23.650Z,36.47
2019-02-05T19:33:53.159Z,36.23
2019-02-05T19:36:23.708Z,37.30
2019-02-05T19:38:54.069Z,36.88
2019-02-05T19:41:24.302Z,40.20
2019-02-05T19:43:53.877Z,41.47
2019-02-05T19:46:41.946Z,39.50
2019-02-05T19:49:31.927Z,42.03
2019-02-05T19:52:02.609Z,46.30
2019-02-05T19:54:33.753Z,42.98
2019-02-05T19:57:03.289Z,45.30
2019-02-05T19:59:32.803Z,41.30
2019-02-05T20:02:02.581Z,41.20
2019-02-05T20:04:32.110Z,43.70
2019-02-05T20:07:01.645Z,40.20
2019-02-05T20:09:31.247Z,45.65
2019-02-05T20:12:09.041Z,43.43
2019-02-05T20:14:43.087Z,39.17
2019-02-05T20:17:20.727Z,44.15
2019-02-05T20:19:57.812Z,47.25
2019-02-05T20:22:27.442Z,45.73
2019-02-05T20:24:57.274Z,50.37
2019-02-05T20:27:27.135Z,45.13
2019-02-05T20:29:57.021Z,47.40
2019-02-05T20:32:28.175Z,46.58
2019-02-05T20:34:58.933Z,45.00
2019-02-05T20:37:28.668Z,49.90
2019-02-05T20:39:59.006Z,43.43
2019-02-05T20:42:31.368Z,49.43
2019-02-05T20:45:00.954Z,46.70
2019-02-05T20:47:30.605Z,47.15
2019-02-05T20:50:00.262Z,47.27
2019-02-05T20:52:29.918Z,50.87
2019-02-05T20:54:59.443Z,49.23
2019-02-05T20:57:30.261Z,50.52
2019-02-05T21:00:02.623Z,50.67
2019-02-05T21:02:33.187Z,49.85
2019-02-05T21:05:02.686Z,52.67
2019-02-05T21:07:33.899Z,58.80
2019-02-05T21:10:06.516Z,51.65
2019-02-05T21:12:38.100Z,54.77
2019-02-05T21:15:09.326Z,58.98
2019-02-05T21:17:38.846Z,63.20
2019-02-05T21:20:10.634Z,60.28
2019-02-05T21:22:40.128Z,59.70
2019-02-05T21:26:49.677Z,67.75
2019-02-05T21:29:19.249Z,74.15
2019-02-05T21:31:48.758Z,70.57
2019-02-05T21:34:18.269Z,70.53
2019-02-05T21:36:48.143Z,72.40
2019-02-05T21:41:01.618Z,74.65
2019-02-05T21:43:31.284Z,71.75
2019-02-05T21:46:01.211Z,77.25
2019-02-05T21:48:30.788Z,75.55
2019-02-05T21:51:00.344Z,73.47
2019-02-05T21:53:29.887Z,81.90
2019-02-05T21:55:59.432Z,75.12
2019-02-05T21:58:28.940Z,77.53
2019-02-05T22:00:58.491Z,76.70
2019-02-05T22:03:30.548Z,81.97
2019-02-05T22:06:00.073Z,87.17
2019-02-05T22:08:32.463Z,80.55
2019-02-05T22:11:02.044Z,76.35
2019-02-05T22:13:31.555Z,72.35
2019-02-05T22:16:01.095Z,80.15
2019-02-05T22:18:30.620Z,86.35
2019-02-05T22:21:00.156Z,80.22
2019-02-05T22:23:29.651Z,80.90
